EGKB

London Biggin Hill Airport

London, United Kingdom
METAR EGKB 211320Z VRB03KT CAVOK 24/12 Q1014
Observed Flight Rules
Jul-21 @ 13:20 UTC (29 minutes ago) Visual Flight Rules
Wind Visibility Clouds
Variable at 3 knots 10,000+ meters
  • Clear skies
Temperatures Readings
Current 24°C / 75°F
Dewpoint 12°C / 54°F
Humidity 47%
Altimeter 29.94" Hg
Pressure 1014 hPa
Elevation 183
METAR EGKB 211320Z VRB03KT CAVOK 24/12 Q1014
Observed Flight Rules
Jul-21 @ 13:20 UTC
(29 minutes ago)
VFR
Wind Visibility
Variable at 3 knots 10,000+ meters
Clouds
  • Clear skies
Temperature Dewpoint
24°C / 75°F 12°C / 54°F
Humidity Altimeter Pressure
47% 29.94" Hg 1014 hPa